Time;durP1;ratioP1;P1;durP2;ratioP2;P2;SDS_P1;SDS_P2;PMS_P1;PMS_P2;Temp;Humidity;BMP_temperature;BMP_pressure;BME280_temperature;BME280_humidity;BME280_pressure;Samples;Min_cycle;Max_cycle;Signal;HPM_P1;HPM_P2
2023/10/04 00:00:16;;;;;;;4.70;2.60;;;15.90;99.90;;;;;;10469573;28;20238;-79
2023/10/04 00:05:20;;;;;;;3.03;2.53;;;15.80;99.90;;;;;;10463134;28;20656;-80
2023/10/04 00:10:24;;;;;;;3.90;3.50;;;15.70;99.90;;;;;;10460658;28;20249;-79
2023/10/04 00:15:29;;;;;;;6.67;3.80;;;15.70;99.90;;;;;;10460279;28;20225;-79
2023/10/04 00:20:33;;;;;;;3.73;3.43;;;15.60;99.90;;;;;;10458517;28;20243;-80
2023/10/04 00:25:35;;;;;;;4.87;3.07;;;15.60;99.90;;;;;;10457868;28;20299;-80
2023/10/04 00:30:39;;;;;;;3.50;3.17;;;15.60;99.90;;;;;;10457310;28;20234;-80
2023/10/04 00:35:41;;;;;;;3.50;3.20;;;15.60;99.90;;;;;;10455146;28;20186;-80
2023/10/04 00:40:43;;;;;;;3.20;3.00;;;15.60;99.90;;;;;;10456837;28;20317;-80
2023/10/04 00:45:48;;;;;;;6.20;3.20;;;15.60;99.90;;;;;;10457482;28;20218;-80
2023/10/04 00:50:51;;;;;;;3.20;2.90;;;15.60;99.90;;;;;;10455827;28;20210;-80
2023/10/04 00:55:55;;;;;;;3.33;3.03;;;15.50;99.90;;;;;;10454490;28;20202;-80
2023/10/04 01:00:58;;;;;;;3.30;2.70;;;15.40;99.90;;;;;;10453143;28;20225;-80
2023/10/04 01:06:03;;;;;;;6.03;3.33;;;15.40;99.90;;;;;;10454129;28;20320;-80
2023/10/04 01:11:10;;;;;;;3.90;3.50;;;15.40;99.90;;;;;;10457593;28;20702;-80
2023/10/04 01:16:15;;;;;;;3.33;2.90;;;15.30;99.90;;;;;;10457760;28;20224;-80
2023/10/04 01:21:17;;;;;;;3.50;3.20;;;15.30;99.90;;;;;;10457987;28;20214;-80
2023/10/04 01:26:26;;;;;;;3.43;3.23;;;15.30;99.90;;;;;;10456507;28;20758;-80
2023/10/04 01:31:28;;;;;;;3.23;2.93;;;15.30;99.90;;;;;;10453833;28;20329;-79
2023/10/04 01:36:31;;;;;;;4.10;3.57;;;15.20;99.90;;;;;;10456143;28;20193;-80
2023/10/04 01:41:37;;;;;;;3.63;3.30;;;15.20;99.90;;;;;;10455859;28;20230;-80
2023/10/04 01:46:40;;;;;;;4.90;3.40;;;15.20;99.90;;;;;;10457283;28;20285;-80
2023/10/04 01:51:42;;;;;;;3.43;3.13;;;15.10;99.90;;;;;;10455671;28;20241;-80
2023/10/04 01:56:46;;;;;;;3.47;3.20;;;15.10;99.90;;;;;;10456938;28;20189;-80
2023/10/04 02:01:48;;;;;;;4.20;3.10;;;15.10;99.90;;;;;;10462411;28;20312;-79
2023/10/04 02:06:50;;;;;;;4.90;4.20;;;15.10;99.90;;;;;;10461072;28;20252;-80
2023/10/04 02:11:53;;;;;;;3.60;3.30;;;15.20;99.90;;;;;;10462990;28;20304;-80
2023/10/04 02:16:55;;;;;;;3.60;3.30;;;15.20;99.90;;;;;;10462764;28;20194;-80
2023/10/04 02:21:57;;;;;;;3.37;3.17;;;15.20;99.90;;;;;;10461586;28;20226;-79
2023/10/04 02:27:01;;;;;;;3.40;3.20;;;15.20;99.90;;;;;;10461619;28;20237;-79
2023/10/04 02:32:08;;;;;;;3.40;3.10;;;15.10;99.90;;;;;;10442820;28;20317;-80
2023/10/04 02:37:11;;;;;;;6.43;3.60;;;15.10;99.90;;;;;;10463394;28;20561;-82
2023/10/04 02:42:21;;;;;;;4.73;3.53;;;15.10;99.90;;;;;;10462566;28;20564;-82
2023/10/04 02:47:25;;;;;;;3.23;2.93;;;15.00;99.90;;;;;;10445845;28;20222;-82
2023/10/04 02:52:28;;;;;;;3.60;3.37;;;15.10;99.90;;;;;;10462059;28;20272;-82
2023/10/04 02:57:31;;;;;;;5.30;3.90;;;15.10;99.90;;;;;;10464725;28;20206;-82
2023/10/04 03:02:34;;;;;;;3.13;2.93;;;15.10;99.90;;;;;;10460680;28;20225;-82
2023/10/04 03:07:37;;;;;;;3.27;3.00;;;15.00;99.90;;;;;;10461396;28;20217;-79
2023/10/04 03:12:41;;;;;;;3.23;3.03;;;15.00;99.90;;;;;;10445939;28;20221;-79
2023/10/04 03:17:44;;;;;;;3.50;3.20;;;15.00;99.90;;;;;;10469572;28;20198;-81
2023/10/04 03:22:50;;;;;;;4.27;3.27;;;14.90;99.90;;;;;;10470866;28;20213;-82
2023/10/04 03:27:54;;;;;;;6.30;3.37;;;14.90;99.90;;;;;;10461861;28;20592;-82
2023/10/04 03:32:58;;;;;;;3.37;3.07;;;14.90;99.90;;;;;;10459871;28;20248;-82
2023/10/04 03:38:05;;;;;;;4.13;3.73;;;14.90;99.90;;;;;;10459670;28;20275;-82
2023/10/04 03:43:13;;;;;;;4.10;3.70;;;14.80;99.90;;;;;;10458972;28;20745;-81
2023/10/04 03:48:19;;;;;;;3.83;3.03;;;14.80;99.90;;;;;;10458928;28;20218;-82
2023/10/04 03:53:30;;;;;;;4.37;3.97;;;14.70;99.90;;;;;;10458932;28;20217;-81
2023/10/04 03:58:35;;;;;;;4.40;3.93;;;14.70;99.90;;;;;;10442679;28;20202;-82
2023/10/04 04:03:37;;;;;;;4.30;3.93;;;14.70;99.90;;;;;;10472209;28;20221;-79
2023/10/04 04:08:39;;;;;;;3.90;3.60;;;14.60;99.90;;;;;;10485466;28;20224;-79
2023/10/04 04:13:44;;;;;;;4.20;3.80;;;14.70;99.90;;;;;;10478801;28;20225;-79
2023/10/04 04:18:51;;;;;;;4.40;4.00;;;14.70;99.90;;;;;;10479112;28;20221;-82
2023/10/04 04:23:53;;;;;;;3.00;2.60;;;14.80;99.90;;;;;;10481927;28;20274;-82
2023/10/04 04:28:57;;;;;;;3.73;3.47;;;14.80;99.90;;;;;;10486570;28;20629;-81
2023/10/04 04:34:03;;;;;;;5.20;3.60;;;14.90;99.90;;;;;;10480324;28;20225;-82
2023/10/04 04:39:05;;;;;;;3.53;3.23;;;14.90;99.90;;;;;;10472145;28;20567;-79
2023/10/04 04:44:09;;;;;;;2.83;2.63;;;14.90;99.90;;;;;;10466421;28;20779;-82
2023/10/04 04:49:15;;;;;;;4.03;3.37;;;14.90;99.90;;;;;;10469525;28;20222;-81
2023/10/04 04:54:19;;;;;;;4.70;3.13;;;14.90;99.90;;;;;;10456488;28;20718;-81
2023/10/04 04:59:24;;;;;;;4.00;3.60;;;14.90;99.90;;;;;;10488000;28;20205;-81
2023/10/04 05:04:27;;;;;;;4.63;3.93;;;14.80;99.90;;;;;;10479705;28;20647;-81
2023/10/04 05:09:29;;;;;;;3.70;3.20;;;14.80;99.90;;;;;;10465582;28;20209;-80
2023/10/04 05:14:33;;;;;;;2.73;2.53;;;14.80;99.90;;;;;;10470981;28;20202;-81
2023/10/04 05:19:35;;;;;;;3.63;3.10;;;14.80;99.90;;;;;;10471381;28;20563;-80
2023/10/04 05:24:37;;;;;;;3.80;3.17;;;14.80;99.90;;;;;;10474556;28;20185;-80
2023/10/04 05:29:40;;;;;;;3.90;2.97;;;14.70;99.90;;;;;;10468036;28;20283;-80
2023/10/04 05:34:42;;;;;;;7.23;3.20;;;14.70;99.90;;;;;;10473514;28;20205;-80
2023/10/04 05:39:44;;;;;;;6.13;3.37;;;14.70;99.90;;;;;;10479692;28;20221;-80
2023/10/04 05:44:48;;;;;;;4.13;3.00;;;14.60;99.90;;;;;;10467811;28;20293;-81
2023/10/04 05:49:50;;;;;;;4.97;2.60;;;14.60;99.90;;;;;;10453738;28;20213;-81
2023/10/04 05:54:53;;;;;;;5.47;3.77;;;14.50;99.90;;;;;;10476808;28;20211;-81
2023/10/04 05:59:57;;;;;;;3.97;2.80;;;14.40;99.90;;;;;;10480196;28;20276;-81
2023/10/04 06:04:59;;;;;;;6.93;3.80;;;14.40;99.90;;;;;;10481048;28;20213;-81
2023/10/04 06:10:01;;;;;;;3.77;3.47;;;14.40;99.90;;;;;;10474774;28;20582;-81
2023/10/04 06:15:10;;;;;;;3.33;2.93;;;14.40;99.90;;;;;;10477870;28;20198;-81
2023/10/04 06:20:28;;;;;;;4.47;4.07;;;14.40;99.90;;;;;;10481663;28;20260;-80
2023/10/04 06:25:30;;;;;;;4.40;2.70;;;14.40;99.90;;;;;;10479759;28;20227;-81
2023/10/04 06:30:34;;;;;;;2.70;2.50;;;14.40;99.90;;;;;;10479855;28;20678;-81
2023/10/04 06:35:38;;;;;;;3.73;3.00;;;14.50;99.90;;;;;;10463162;28;20696;-81
2023/10/04 06:40:40;;;;;;;5.03;3.27;;;14.50;99.90;;;;;;10473343;28;20234;-81
2023/10/04 06:45:44;;;;;;;4.87;3.70;;;14.50;99.90;;;;;;10478974;28;20217;-79
2023/10/04 06:50:49;;;;;;;3.60;3.30;;;14.60;99.90;;;;;;10476922;28;20578;-81
2023/10/04 06:55:51;;;;;;;4.10;2.70;;;14.60;99.90;;;;;;10491919;28;20190;-81
2023/10/04 07:00:56;;;;;;;5.30;3.00;;;14.80;99.90;;;;;;10495051;28;20232;-81
2023/10/04 07:05:58;;;;;;;3.70;2.53;;;15.00;99.90;;;;;;10493090;28;20217;-81
2023/10/04 07:11:03;;;;;;;3.50;2.57;;;15.00;99.90;;;;;;10470858;28;20249;-80
2023/10/04 07:16:06;;;;;;;3.57;3.23;;;15.10;99.90;;;;;;10464024;28;20198;-81
2023/10/04 07:21:08;;;;;;;4.43;2.47;;;15.20;99.90;;;;;;10477296;28;20571;-80
2023/10/04 07:26:11;;;;;;;3.30;2.30;;;15.30;99.90;;;;;;10487804;28;20242;-81
2023/10/04 07:31:14;;;;;;;2.87;2.60;;;15.30;99.90;;;;;;10479854;28;20298;-81
2023/10/04 07:36:16;;;;;;;4.23;2.47;;;15.30;99.90;;;;;;10474849;28;20200;-81
2023/10/04 07:41:18;;;;;;;4.50;2.60;;;15.40;99.90;;;;;;10464041;28;20226;-81
2023/10/04 07:46:25;;;;;;;4.10;2.23;;;15.50;99.90;;;;;;10483715;28;20256;-81
2023/10/04 07:51:28;;;;;;;4.23;2.13;;;15.60;99.70;;;;;;10464323;28;20671;-81
2023/10/04 07:56:30;;;;;;;4.93;2.60;;;15.70;99.60;;;;;;10481549;28;20626;-81
2023/10/04 08:01:33;;;;;;;2.70;2.50;;;15.80;99.50;;;;;;10477394;28;20591;-81
2023/10/04 08:06:36;;;;;;;2.03;1.87;;;15.90;99.70;;;;;;10472169;28;20217;-81
2023/10/04 08:11:38;;;;;;;3.43;2.07;;;16.00;98.90;;;;;;10461957;28;20252;-80
2023/10/04 08:16:41;;;;;;;2.43;1.90;;;16.10;99.10;;;;;;10476426;28;20280;-81
2023/10/04 08:21:44;;;;;;;3.20;2.30;;;16.10;98.70;;;;;;10475712;28;20221;-81
2023/10/04 08:26:48;;;;;;;4.77;2.20;;;16.20;98.20;;;;;;10467267;28;20217;-81
2023/10/04 08:31:52;;;;;;;6.27;2.20;;;16.30;98.40;;;;;;10480718;28;20221;-81
2023/10/04 08:36:54;;;;;;;2.47;2.13;;;16.30;98.90;;;;;;10473432;28;20936;-82
2023/10/04 08:41:57;;;;;;;5.67;2.03;;;16.40;98.40;;;;;;10471962;28;20255;-82
2023/10/04 08:47:05;;;;;;;2.10;1.90;;;16.50;98.50;;;;;;10481857;28;20213;-81
2023/10/04 08:52:17;;;;;;;1.93;1.83;;;16.60;98.30;;;;;;10472661;28;20228;-82
2023/10/04 08:57:20;;;;;;;2.57;1.83;;;16.60;98.30;;;;;;10462918;28;20205;-82
2023/10/04 09:02:24;;;;;;;2.17;1.80;;;16.70;97.30;;;;;;10468062;28;20223;-82
2023/10/04 09:07:28;;;;;;;5.87;2.43;;;16.80;96.90;;;;;;10478898;28;20871;-82
2023/10/04 09:12:30;;;;;;;3.20;1.60;;;16.80;96.90;;;;;;10470057;28;20226;-82
2023/10/04 09:17:49;;;;;;;3.20;1.90;;;16.90;96.90;;;;;;10474625;28;20214;-82
2023/10/04 09:22:51;;;;;;;2.70;1.77;;;17.00;96.60;;;;;;10483152;28;20221;-81
2023/10/04 09:27:56;;;;;;;4.90;1.83;;;17.10;97.00;;;;;;10492279;28;20691;-81
2023/10/04 09:32:59;;;;;;;3.73;2.50;;;17.20;96.40;;;;;;10483714;28;20224;-82
2023/10/04 09:38:15;;;;;;;6.40;2.40;;;17.30;95.50;;;;;;10469516;28;20265;-82
2023/10/04 09:43:17;;;;;;;2.67;2.17;;;17.50;95.90;;;;;;10470996;28;20271;-82
2023/10/04 09:48:21;;;;;;;3.03;2.13;;;17.70;95.90;;;;;;10481644;28;20221;-82
2023/10/04 09:53:23;;;;;;;2.00;1.80;;;17.90;95.10;;;;;;10487418;28;20251;-81
2023/10/04 09:58:30;;;;;;;3.30;1.80;;;18.00;94.70;;;;;;10486805;28;20198;-81
2023/10/04 10:03:40;;;;;;;1.83;1.73;;;18.00;94.00;;;;;;10475238;28;20229;-81
2023/10/04 10:08:49;;;;;;;7.53;2.30;;;18.00;94.00;;;;;;10471305;28;20691;-80
2023/10/04 10:13:53;;;;;;;4.33;2.17;;;18.00;94.00;;;;;;10472611;28;20686;-81
2023/10/04 10:18:57;;;;;;;3.67;1.90;;;18.00;93.30;;;;;;10482062;28;20244;-81
2023/10/04 10:24:03;;;;;;;2.20;1.90;;;17.90;93.60;;;;;;10477492;28;20225;-79
2023/10/04 10:29:05;;;;;;;3.00;2.17;;;17.80;94.60;;;;;;10500791;28;20233;-80
2023/10/04 10:34:09;;;;;;;3.93;2.23;;;17.90;93.90;;;;;;10485428;28;20221;-82
2023/10/04 10:39:24;;;;;;;2.93;2.47;;;18.10;93.50;;;;;;10491199;28;20228;-81
2023/10/04 10:44:30;;;;;;;2.50;2.30;;;18.20;93.70;;;;;;10464390;28;20658;-81
2023/10/04 10:49:42;;;;;;;4.80;2.60;;;18.30;94.10;;;;;;10474473;28;20228;-81
2023/10/04 10:54:45;;;;;;;4.00;2.00;;;18.50;94.60;;;;;;10476965;28;20201;-79
2023/10/04 10:59:49;;;;;;;4.10;2.27;;;18.70;93.70;;;;;;10489423;28;20262;-81
2023/10/04 11:04:55;;;;;;;4.87;2.50;;;18.70;92.50;;;;;;10474081;28;20208;-81
2023/10/04 11:09:58;;;;;;;4.70;2.10;;;18.60;92.40;;;;;;10494871;28;20275;-80
2023/10/04 11:15:00;;;;;;;2.43;1.70;;;18.50;92.90;;;;;;10474305;28;20280;-81
2023/10/04 11:20:09;;;;;;;2.43;1.73;;;18.50;92.40;;;;;;10488081;28;20225;-82
2023/10/04 11:25:13;;;;;;;2.00;1.80;;;18.50;91.20;;;;;;10496839;28;20379;-82
2023/10/04 11:30:17;;;;;;;4.20;1.80;;;18.50;92.10;;;;;;10488145;28;20225;-82
2023/10/04 11:35:21;;;;;;;1.97;1.73;;;18.60;92.40;;;;;;10472968;28;20198;-81
2023/10/04 11:40:27;;;;;;;2.00;1.80;;;18.80;92.90;;;;;;10483190;28;20228;-81
2023/10/04 11:45:31;;;;;;;7.57;1.90;;;19.00;91.90;;;;;;10478614;28;20609;-82
2023/10/04 11:50:48;;;;;;;4.30;1.60;;;19.00;91.90;;;;;;10479364;28;20291;-81
2023/10/04 11:55:57;;;;;;;1.73;1.63;;;18.80;90.90;;;;;;10485094;22;20229;-79
2023/10/04 12:01:08;;;;;;;1.90;1.80;;;18.60;92.30;;;;;;10477583;28;20455;-80
2023/10/04 12:06:13;;;;;;;1.47;1.23;;;18.50;92.60;;;;;;10457594;28;20445;-80
2023/10/04 12:11:21;;;;;;;1.93;1.60;;;18.40;93.00;;;;;;10465880;28;20209;-80
2023/10/04 12:16:25;;;;;;;2.03;1.83;;;18.50;91.80;;;;;;10476952;28;20675;-80
2023/10/04 12:21:28;;;;;;;4.00;1.77;;;18.60;92.60;;;;;;10459632;28;20232;-79
2023/10/04 12:26:31;;;;;;;2.20;1.37;;;18.70;91.70;;;;;;10468721;28;20225;-80
2023/10/04 12:31:33;;;;;;;4.07;2.00;;;18.80;90.80;;;;;;10478072;28;20205;-81
2023/10/04 12:36:39;;;;;;;4.13;1.73;;;18.70;90.50;;;;;;10477100;28;20209;-80
2023/10/04 12:41:41;;;;;;;1.63;1.53;;;18.60;90.50;;;;;;10470570;28;20710;-80
2023/10/04 12:46:43;;;;;;;1.70;1.60;;;18.60;90.30;;;;;;10466794;28;20240;-80
2023/10/04 12:51:47;;;;;;;2.83;1.27;;;18.60;90.30;;;;;;10463282;28;20551;-81
2023/10/04 12:56:51;;;;;;;2.20;1.57;;;18.60;90.60;;;;;;10458265;28;20229;-80
2023/10/04 13:01:54;;;;;;;3.57;1.87;;;18.60;90.30;;;;;;10477765;28;20656;-80
2023/10/04 13:06:58;;;;;;;3.63;1.70;;;18.60;90.50;;;;;;10471959;28;20248;-80
2023/10/04 13:12:00;;;;;;;2.03;1.70;;;18.50;90.70;;;;;;10472090;28;20213;-79
2023/10/04 13:17:05;;;;;;;2.40;1.73;;;18.50;90.60;;;;;;10470445;28;20204;-80
2023/10/04 13:22:11;;;;;;;2.60;2.40;;;18.50;91.00;;;;;;10470901;28;20236;-79
2023/10/04 13:27:13;;;;;;;1.83;1.57;;;18.50;90.30;;;;;;10462032;28;20312;-80
2023/10/04 13:32:18;;;;;;;4.77;2.10;;;18.50;90.60;;;;;;10465925;28;20233;-79
2023/10/04 13:37:22;;;;;;;3.07;2.07;;;18.50;90.70;;;;;;10471417;28;20553;-80
2023/10/04 13:42:24;;;;;;;2.40;2.20;;;18.60;91.60;;;;;;10462767;28;20645;-80
2023/10/04 13:47:28;;;;;;;3.10;1.50;;;18.70;90.80;;;;;;10480874;28;20224;-80
2023/10/04 13:52:31;;;;;;;2.77;1.93;;;18.80;90.00;;;;;;10469873;28;20743;-80
2023/10/04 13:57:33;;;;;;;2.30;2.00;;;18.80;90.20;;;;;;10459578;28;20197;-80
2023/10/04 14:02:35;;;;;;;2.60;1.97;;;18.80;90.30;;;;;;10477394;28;20228;-80
2023/10/04 14:07:39;;;;;;;6.40;1.90;;;18.90;88.90;;;;;;10480522;28;20213;-80
2023/10/04 14:12:41;;;;;;;1.70;1.57;;;18.90;89.20;;;;;;10489087;28;20241;-80
2023/10/04 14:17:43;;;;;;;5.60;1.93;;;18.90;89.50;;;;;;10493805;28;20187;-80
2023/10/04 14:22:47;;;;;;;1.90;1.40;;;18.90;88.50;;;;;;10481760;28;20218;-80
2023/10/04 14:27:49;;;;;;;2.40;1.77;;;19.00;88.00;;;;;;10467842;28;20256;-81
2023/10/04 14:32:51;;;;;;;3.50;1.60;;;19.00;90.10;;;;;;10479519;28;20671;-80
2023/10/04 14:37:55;;;;;;;2.33;2.10;;;19.10;88.60;;;;;;10482338;28;20202;-80
2023/10/04 14:42:57;;;;;;;1.47;1.37;;;19.10;89.10;;;;;;10467712;28;20251;-80
2023/10/04 14:48:00;;;;;;;3.73;1.83;;;19.10;89.70;;;;;;10468005;28;20272;-80
2023/10/04 14:53:05;;;;;;;4.40;1.80;;;19.10;89.40;;;;;;10468182;28;20313;-80
2023/10/04 14:58:07;;;;;;;5.80;2.07;;;19.10;89.20;;;;;;10468998;28;20279;-80
2023/10/04 15:03:09;;;;;;;3.50;2.10;;;19.10;88.70;;;;;;10449484;28;20267;-80
2023/10/04 15:08:12;;;;;;;2.27;1.80;;;19.10;88.50;;;;;;10465542;28;20210;-79
2023/10/04 15:13:15;;;;;;;2.43;1.40;;;19.10;88.00;;;;;;10462542;28;20248;-80
2023/10/04 15:18:17;;;;;;;3.40;2.30;;;19.10;88.60;;;;;;10465691;28;20762;-80
2023/10/04 15:23:20;;;;;;;1.90;1.80;;;19.00;86.80;;;;;;10463321;28;20594;-80
2023/10/04 15:28:22;;;;;;;4.00;2.00;;;19.00;89.10;;;;;;10464022;28;20222;-80
2023/10/04 15:33:25;;;;;;;2.13;1.93;;;18.90;90.00;;;;;;10462672;28;20737;-79
2023/10/04 15:38:28;;;;;;;2.63;1.97;;;18.80;87.70;;;;;;10461623;28;20202;-80
2023/10/04 15:43:32;;;;;;;3.13;2.63;;;18.70;87.70;;;;;;10461024;28;20678;-80
2023/10/04 15:48:34;;;;;;;1.83;1.60;;;18.60;88.80;;;;;;10460587;28;20222;-80
2023/10/04 15:53:37;;;;;;;1.83;1.70;;;18.60;89.60;;;;;;10465092;28;20218;-80
2023/10/04 15:58:39;;;;;;;2.40;1.83;;;18.60;88.60;;;;;;10465914;28;20220;-79
2023/10/04 16:03:42;;;;;;;3.67;2.10;;;18.50;90.10;;;;;;10462709;28;20214;-80
2023/10/04 16:08:47;;;;;;;2.67;1.70;;;18.50;90.40;;;;;;10462945;28;20569;-80
2023/10/04 16:13:49;;;;;;;2.13;1.80;;;18.40;90.30;;;;;;10459483;28;20229;-79
2023/10/04 16:18:52;;;;;;;3.37;2.53;;;18.40;90.40;;;;;;10456533;28;20240;-79
2023/10/04 16:23:55;;;;;;;2.30;2.10;;;18.30;90.90;;;;;;10467090;28;20217;-78
2023/10/04 16:28:57;;;;;;;2.60;1.90;;;18.30;90.80;;;;;;10464038;28;20283;-78
2023/10/04 16:33:59;;;;;;;4.70;2.80;;;18.20;90.50;;;;;;10450969;28;20312;-79
2023/10/04 16:39:03;;;;;;;3.10;2.00;;;18.10;91.10;;;;;;10454089;28;20193;-78
2023/10/04 16:44:06;;;;;;;2.63;2.43;;;18.10;92.10;;;;;;10450498;28;20229;-78
2023/10/04 16:49:08;;;;;;;2.30;2.07;;;18.00;92.60;;;;;;10473903;28;20225;-78
2023/10/04 16:54:12;;;;;;;2.60;2.40;;;17.90;92.60;;;;;;10486543;28;20233;-79
2023/10/04 16:59:15;;;;;;;2.23;2.03;;;17.80;92.30;;;;;;10481345;28;20193;-78
2023/10/04 17:04:17;;;;;;;4.03;2.40;;;17.80;92.40;;;;;;10466072;28;20253;-78
2023/10/04 17:09:21;;;;;;;3.73;2.20;;;17.70;92.90;;;;;;10468900;28;20271;-78
2023/10/04 17:14:23;;;;;;;6.50;4.93;;;17.60;93.30;;;;;;10469559;28;20283;-78
2023/10/04 17:19:25;;;;;;;4.53;2.77;;;17.50;93.30;;;;;;10449881;28;20584;-78
2023/10/04 17:24:29;;;;;;;2.77;2.57;;;17.30;93.50;;;;;;10473415;28;20636;-78
2023/10/04 17:29:31;;;;;;;7.03;5.63;;;17.20;93.80;;;;;;10456744;28;20253;-78
2023/10/04 17:34:33;;;;;;;2.40;2.20;;;17.00;93.90;;;;;;10461942;28;20583;-77
2023/10/04 17:39:36;;;;;;;4.57;2.50;;;16.90;93.90;;;;;;10446361;28;20213;-78
2023/10/04 17:44:38;;;;;;;3.50;2.40;;;16.80;94.10;;;;;;10466734;28;20213;-78
2023/10/04 17:49:40;;;;;;;2.90;2.60;;;16.70;94.30;;;;;;10451151;28;20697;-78
2023/10/04 17:54:44;;;;;;;4.30;2.80;;;16.60;94.30;;;;;;10450055;28;20217;-77
2023/10/04 17:59:46;;;;;;;3.20;2.50;;;16.60;94.50;;;;;;10471869;28;20263;-77
2023/10/04 18:04:49;;;;;;;2.90;2.60;;;16.50;94.40;;;;;;10476919;28;20216;-76
2023/10/04 18:09:53;;;;;;;4.20;2.50;;;16.50;94.50;;;;;;10457429;28;20230;-78
2023/10/04 18:14:55;;;;;;;5.20;2.83;;;16.50;94.70;;;;;;10449537;28;20271;-79
2023/10/04 18:19:57;;;;;;;3.00;2.10;;;16.40;94.60;;;;;;10452348;28;20193;-79
2023/10/04 18:25:02;;;;;;;2.40;2.20;;;16.40;95.10;;;;;;10450253;28;20217;-79
2023/10/04 18:30:09;;;;;;;5.30;2.70;;;16.30;95.40;;;;;;10450076;28;20281;-79
2023/10/04 18:35:11;;;;;;;3.80;2.77;;;16.30;95.40;;;;;;10449222;28;20600;-79
2023/10/04 18:40:15;;;;;;;4.23;2.57;;;16.20;95.50;;;;;;10447056;28;20198;-80
2023/10/04 18:45:18;;;;;;;6.80;3.03;;;16.20;95.20;;;;;;10446639;28;20237;-79
2023/10/04 18:50:21;;;;;;;5.00;2.80;;;16.20;95.40;;;;;;10457553;28;20706;-79
2023/10/04 18:55:24;;;;;;;3.03;2.70;;;16.20;95.30;;;;;;10459205;28;20226;-79
2023/10/04 19:00:27;;;;;;;5.63;3.20;;;16.10;95.70;;;;;;10457653;28;20197;-79
2023/10/04 19:05:29;;;;;;;3.83;2.90;;;16.10;95.70;;;;;;10456457;28;20364;-78
2023/10/04 19:10:32;;;;;;;2.97;2.67;;;16.10;95.50;;;;;;10460557;28;20217;-79
2023/10/04 19:15:35;;;;;;;4.13;2.87;;;16.00;95.50;;;;;;10456466;28;20290;-79
2023/10/04 19:20:37;;;;;;;5.43;3.00;;;16.00;95.40;;;;;;10456451;28;20280;-79
2023/10/04 19:25:41;;;;;;;4.20;3.80;;;15.90;95.80;;;;;;10459147;28;20283;-78
2023/10/04 19:30:44;;;;;;;7.90;5.60;;;15.80;95.80;;;;;;10456353;28;20226;-78
2023/10/04 19:35:46;;;;;;;7.67;5.30;;;15.70;95.80;;;;;;10451191;28;20221;-78
2023/10/04 19:40:50;;;;;;;17.97;10.20;;;15.70;95.80;;;;;;10437999;28;20193;-78
2023/10/04 19:45:53;;;;;;;21.00;11.97;;;15.60;96.20;;;;;;10436470;28;20253;-79
2023/10/04 19:50:55;;;;;;;4.47;2.77;;;15.50;96.20;;;;;;10457176;28;20269;-79
2023/10/04 19:55:59;;;;;;;3.27;2.97;;;15.40;96.10;;;;;;10451048;28;20260;-79
2023/10/04 20:01:01;;;;;;;5.27;3.17;;;15.40;96.30;;;;;;10435890;28;20212;-78
2023/10/04 20:06:09;;;;;;;4.10;3.43;;;15.30;96.20;;;;;;10456616;28;20588;-78
2023/10/04 20:11:12;;;;;;;4.63;3.60;;;15.30;96.30;;;;;;10456611;28;20667;-79
2023/10/04 20:16:15;;;;;;;4.63;2.97;;;15.20;96.30;;;;;;10455955;28;20222;-78
2023/10/04 20:21:18;;;;;;;4.93;3.40;;;15.20;96.40;;;;;;10455268;28;20198;-79
2023/10/04 20:26:22;;;;;;;3.83;3.53;;;15.10;96.40;;;;;;10436324;28;20208;-78
2023/10/04 20:31:25;;;;;;;6.37;4.67;;;15.00;96.50;;;;;;10452912;28;20236;-80
2023/10/04 20:36:27;;;;;;;5.23;3.70;;;15.00;96.50;;;;;;10436864;28;20252;-78
2023/10/04 20:41:31;;;;;;;6.63;3.57;;;14.90;96.60;;;;;;10452835;28;20255;-79
2023/10/04 20:46:34;;;;;;;4.93;4.43;;;14.90;96.60;;;;;;10428763;28;20256;-78
2023/10/04 20:51:36;;;;;;;5.43;3.20;;;14.80;96.60;;;;;;10440487;28;20253;-78
2023/10/04 20:56:40;;;;;;;5.30;2.97;;;14.80;96.80;;;;;;10451710;28;20201;-78
2023/10/04 21:01:43;;;;;;;5.63;3.30;;;14.80;96.90;;;;;;10444748;28;20218;-78
2023/10/04 21:06:46;;;;;;;4.73;3.10;;;14.70;97.10;;;;;;10455861;28;20552;-78
2023/10/04 21:11:50;;;;;;;4.90;2.70;;;14.80;97.30;;;;;;10436088;28;20222;-79
2023/10/04 21:16:52;;;;;;;3.83;3.50;;;14.80;97.10;;;;;;10456278;28;20198;-79
2023/10/04 21:21:54;;;;;;;4.30;3.50;;;14.80;97.20;;;;;;10438455;28;20233;-79
2023/10/04 21:26:58;;;;;;;3.20;3.00;;;14.80;97.30;;;;;;10457853;28;20285;-80
2023/10/04 21:32:01;;;;;;;4.20;3.20;;;14.70;96.90;;;;;;10437658;28;20222;-79
2023/10/04 21:37:09;;;;;;;3.43;3.13;;;14.70;97.00;;;;;;10454650;28;20643;-79
2023/10/04 21:42:15;;;;;;;4.00;3.10;;;14.70;97.10;;;;;;10455690;28;20218;-80
2023/10/04 21:47:26;;;;;;;5.57;3.00;;;14.60;97.10;;;;;;10438505;28;20205;-79
2023/10/04 21:52:31;;;;;;;4.03;3.70;;;14.60;97.20;;;;;;10456653;28;20867;-79
2023/10/04 21:57:34;;;;;;;4.80;2.90;;;14.60;97.50;;;;;;10455119;28;20285;-79
2023/10/04 22:02:37;;;;;;;2.87;2.40;;;14.50;97.20;;;;;;10454557;28;20221;-80
2023/10/04 22:07:39;;;;;;;2.70;2.50;;;14.50;97.40;;;;;;10458252;28;20222;-79
2023/10/04 22:12:43;;;;;;;3.50;3.10;;;14.50;97.40;;;;;;10454347;28;20218;-79
2023/10/04 22:17:46;;;;;;;2.93;2.63;;;14.50;97.10;;;;;;10437918;28;20248;-78
2023/10/04 22:22:48;;;;;;;4.80;3.13;;;14.50;97.30;;;;;;10458840;28;20630;-80
2023/10/04 22:27:52;;;;;;;2.00;1.90;;;14.40;97.30;;;;;;10459645;28;20216;-79
2023/10/04 22:32:54;;;;;;;5.67;3.00;;;14.40;97.40;;;;;;10441505;28;20266;-79
2023/10/04 22:37:57;;;;;;;2.80;2.43;;;14.40;97.20;;;;;;10461503;28;20194;-79
2023/10/04 22:43:01;;;;;;;3.60;2.70;;;14.40;97.30;;;;;;10456932;28;20214;-79
2023/10/04 22:48:04;;;;;;;3.70;3.10;;;14.40;97.40;;;;;;10462497;28;20209;-79
2023/10/04 22:53:08;;;;;;;3.33;3.10;;;14.30;97.30;;;;;;10443679;28;20236;-79
2023/10/04 22:58:13;;;;;;;3.03;2.30;;;14.30;97.30;;;;;;10445167;28;20248;-80
2023/10/04 23:03:15;;;;;;;3.47;3.17;;;14.30;97.20;;;;;;10461361;28;20218;-81
2023/10/04 23:08:17;;;;;;;43.40;17.00;;;14.20;97.40;;;;;;10462917;28;20662;-80
2023/10/04 23:13:21;;;;;;;6.40;4.57;;;14.20;97.40;;;;;;10444430;28;20217;-79
2023/10/04 23:18:24;;;;;;;3.93;2.90;;;14.10;97.50;;;;;;10462253;28;20627;-79
2023/10/04 23:23:30;;;;;;;3.40;2.70;;;14.10;97.60;;;;;;10463779;28;20233;-79
2023/10/04 23:28:34;;;;;;;3.47;3.17;;;14.10;97.50;;;;;;10459836;28;20588;-79
2023/10/04 23:33:38;;;;;;;3.00;2.80;;;14.00;97.40;;;;;;10461241;28;20642;-79
2023/10/04 23:38:43;;;;;;;3.00;2.80;;;14.00;97.60;;;;;;10461980;28;20264;-78
2023/10/04 23:43:46;;;;;;;34.53;19.40;;;13.90;97.80;;;;;;10461847;28;20224;-79
2023/10/04 23:48:49;;;;;;;44.50;25.43;;;13.90;97.70;;;;;;10460815;28;20225;-78
2023/10/04 23:54:07;;;;;;;31.63;20.50;;;13.90;97.80;;;;;;10458446;28;20233;-79
2023/10/04 23:59:11;;;;;;;6.50;4.90;;;13.90;97.70;;;;;;10444769;28;20201;-79
